Terminal Aerodrome Forecast
Issued by NWS

Home | Current Version | Previous Version | Text Only | Print | Product List | Glossary On
Versions: 1 2 3 4 5 6 7 8 9 10 11 12 13 14 15 16 17
000
FTUS45 KVEF 261342 AAA
TAFEED
TAF AMD
KEED 261342Z 2614/2712 32008KT P6SM FEW110 SCT200
     FM261500 33020G32KT P6SM FEW250
     FM261800 01028G38KT P6SM FEW250
     FM270300 01009G16KT P6SM FEW250=

USA.gov is the U.S. government's official web portal to all federal, state and local government web resources and services.